Terminal Aerodrome Forecast
Issued by NWS

Home | Current Version | Previous Version | Text Only | Print | Product List | Glossary On
Versions: 1 2 3 4 5 6 7 8 9 10 11 12 13 14 15 16 17
000
FTUS44 KTSA 241100
TAFRVS
TAF
KRVS 241120Z 2412/2512 15003KT P6SM BKN050
      TEMPO 2412/2414 3SM BR
     FM241500 18007KT P6SM SCT250
     FM250100 00000KT P6SM SKC=

USA.gov is the U.S. government's official web portal to all federal, state and local government web resources and services.